createdAt,value
2022-12-15T00:00:38.029Z,55.53
2022-12-15T00:03:22.772Z,60.67
2022-12-15T00:08:43.128Z,69.25
2022-12-15T00:11:24.732Z,55.15
2022-12-15T00:14:06.361Z,53.75
2022-12-15T00:16:48.342Z,56.60
2022-12-15T00:19:29.914Z,56.28
2022-12-15T00:22:11.588Z,54.78
2022-12-15T00:24:56.473Z,52.20
2022-12-15T00:30:22.649Z,53.55
2022-12-15T00:33:05.028Z,56.33
2022-12-15T00:35:47.281Z,57.72
2022-12-15T00:38:30.738Z,55.80
2022-12-15T00:41:03.558Z,62.17
2022-12-15T00:43:35.469Z,60.83
2022-12-15T00:46:18.371Z,60.03
2022-12-15T00:48:48.452Z,61.53
2022-12-15T00:51:16.289Z,58.67
2022-12-15T00:53:59.158Z,55.70
2022-12-15T00:56:44.472Z,57.95
2022-12-15T00:59:27.682Z,55.72
2022-12-15T01:02:10.031Z,57.95
2022-12-15T01:04:52.397Z,60.72
2022-12-15T01:07:34.664Z,59.55
2022-12-15T01:10:17.200Z,55.20
2022-12-15T01:13:02.145Z,57.55
2022-12-15T01:15:44.532Z,59.60
2022-12-15T01:18:27.055Z,59.47
2022-12-15T01:21:00.500Z,62.00
2022-12-15T01:23:31.021Z,61.33
2022-12-15T01:26:01.262Z,57.33
2022-12-15T01:28:34.119Z,58.13
2022-12-15T01:31:04.045Z,62.50
2022-12-15T01:33:34.061Z,63.25
2022-12-15T01:36:04.715Z,62.47
2022-12-15T01:38:34.517Z,59.45
2022-12-15T01:41:07.781Z,61.13
2022-12-15T01:43:42.265Z,57.65
2022-12-15T01:48:46.657Z,62.17
2022-12-15T01:51:26.244Z,56.60
2022-12-15T01:54:00.763Z,57.88
2022-12-15T01:59:15.130Z,54.80
2022-12-15T02:01:45.183Z,60.60
2022-12-15T02:04:25.589Z,63.38
2022-12-15T02:06:55.682Z,61.30
2022-12-15T02:09:27.208Z,62.55
2022-12-15T02:12:03.773Z,64.47
2022-12-15T02:14:51.621Z,70.43
2022-12-15T02:17:31.728Z,63.25
2022-12-15T02:20:30.759Z,67.13
2022-12-15T02:23:26.854Z,68.80
2022-12-15T02:26:22.843Z,62.75
2022-12-15T02:29:03.576Z,70.90
2022-12-15T02:36:55.915Z,73.07
2022-12-15T02:39:25.304Z,72.00
2022-12-15T02:41:53.904Z,61.00
2022-12-15T02:44:25.923Z,70.97
2022-12-15T02:47:19.066Z,68.13
2022-12-15T02:50:01.468Z,69.75
2022-12-15T02:52:48.423Z,73.35
2022-12-15T02:55:27.740Z,79.47
2022-12-15T02:58:04.693Z,63.92
2022-12-15T03:00:40.418Z,72.65
2022-12-15T03:03:11.143Z,72.00
2022-12-15T03:05:41.117Z,80.05
2022-12-15T03:08:13.603Z,70.72
2022-12-15T03:10:43.490Z,71.07
2022-12-15T03:13:14.214Z,66.82
2022-12-15T03:15:44.027Z,63.72
2022-12-15T03:18:13.960Z,73.80
2022-12-15T03:20:43.892Z,66.75
2022-12-15T03:23:16.318Z,67.60
2022-12-15T03:25:49.953Z,68.82
2022-12-15T03:28:20.394Z,69.70
2022-12-15T03:30:51.638Z,63.22
2022-12-15T03:33:22.828Z,60.03
2022-12-15T03:35:52.641Z,64.78
2022-12-15T03:38:25.015Z,59.28
2022-12-15T03:40:54.911Z,68.13
2022-12-15T03:43:25.134Z,67.32
2022-12-15T03:45:54.954Z,64.68
2022-12-15T03:48:24.840Z,63.60
2022-12-15T03:50:55.308Z,63.88
2022-12-15T03:53:27.997Z,63.72
2022-12-15T03:55:58.136Z,70.90
2022-12-15T03:58:28.024Z,63.55
2022-12-15T04:00:58.560Z,62.67
2022-12-15T04:03:29.002Z,62.40
2022-12-15T04:05:59.193Z,64.53
2022-12-15T04:08:31.549Z,57.53
2022-12-15T04:11:01.473Z,65.07
2022-12-15T04:13:31.728Z,62.78
2022-12-15T04:16:04.956Z,62.97
2022-12-15T04:18:35.709Z,69.63
2022-12-15T04:21:03.061Z,70.85
2022-12-15T04:23:35.473Z,66.50
2022-12-15T04:26:17.740Z,61.35
2022-12-15T04:29:00.024Z,59.55
2022-12-15T04:31:43.991Z,67.15
2022-12-15T04:34:30.289Z,59.00
2022-12-15T04:37:13.157Z,55.85
2022-12-15T04:40:00.809Z,59.10
2022-12-15T04:42:43.944Z,78.05
2022-12-15T04:45:28.975Z,59.35
2022-12-15T04:48:14.211Z,66.22
2022-12-15T04:50:56.514Z,65.45
2022-12-15T04:53:38.873Z,62.10
2022-12-15T04:56:25.788Z,69.00
2022-12-15T05:04:31.072Z,63.85
2022-12-15T05:07:13.697Z,62.95
2022-12-15T05:10:00.961Z,57.05
2022-12-15T05:12:45.244Z,63.72
2022-12-15T05:15:27.871Z,62.75
2022-12-15T05:18:10.194Z,66.05
2022-12-15T05:20:55.082Z,64.88
2022-12-15T05:23:40.606Z,69.38
2022-12-15T05:26:23.221Z,61.25
2022-12-15T05:29:05.584Z,67.00
2022-12-15T05:31:52.233Z,59.25
2022-12-15T05:34:23.812Z,66.28
2022-12-15T05:37:00.014Z,66.25
2022-12-15T05:39:30.354Z,64.13
2022-12-15T05:42:00.357Z,65.15
2022-12-15T05:44:31.598Z,66.32
2022-12-15T05:47:01.392Z,65.68
2022-12-15T05:49:31.291Z,63.22
2022-12-15T05:52:03.719Z,67.82
2022-12-15T05:54:33.544Z,67.43
2022-12-15T05:57:03.349Z,68.75
2022-12-15T05:59:33.208Z,71.68
2022-12-15T06:02:03.048Z,68.88
2022-12-15T06:04:33.333Z,68.60
2022-12-15T06:07:05.734Z,60.67
2022-12-15T06:09:35.544Z,69.28
2022-12-15T06:12:05.396Z,74.30
2022-12-15T06:14:36.290Z,68.22
2022-12-15T06:17:06.089Z,78.15
2022-12-15T06:19:35.943Z,67.28
2022-12-15T06:22:08.274Z,66.50
2022-12-15T06:24:38.184Z,62.42
2022-12-15T06:27:09.132Z,65.57
2022-12-15T06:29:39.017Z,63.45
2022-12-15T06:32:08.812Z,64.25
2022-12-15T06:34:38.537Z,63.70
2022-12-15T06:37:10.910Z,64.38
2022-12-15T06:39:40.712Z,62.58
2022-12-15T06:42:10.540Z,67.07
2022-12-15T06:44:40.421Z,66.63
2022-12-15T06:47:10.335Z,70.82
2022-12-15T06:49:40.148Z,66.53
2022-12-15T06:52:12.589Z,66.18
2022-12-15T06:54:42.434Z,65.82
2022-12-15T06:57:12.296Z,68.75
2022-12-15T06:59:42.090Z,66.72
2022-12-15T07:02:23.707Z,66.13
2022-12-15T07:04:56.800Z,65.68
2022-12-15T07:07:29.561Z,73.80
2022-12-15T07:09:59.481Z,68.55
2022-12-15T07:12:29.326Z,61.22
2022-12-15T07:14:59.125Z,62.15
2022-12-15T07:17:32.057Z,73.75
2022-12-15T07:20:01.910Z,63.97
2022-12-15T07:22:34.349Z,74.75
2022-12-15T07:25:04.874Z,61.67
2022-12-15T07:27:34.670Z,70.93
2022-12-15T07:30:04.634Z,66.88
2022-12-15T07:32:34.490Z,62.85
2022-12-15T07:35:05.536Z,62.03
2022-12-15T07:37:38.294Z,67.32
2022-12-15T07:40:09.717Z,59.97
2022-12-15T07:42:39.864Z,64.32
2022-12-15T07:45:10.996Z,59.80
2022-12-15T07:47:40.809Z,57.53
2022-12-15T07:50:11.645Z,58.38
2022-12-15T07:52:44.060Z,60.03
2022-12-15T07:55:13.896Z,53.40
2022-12-15T07:57:45.297Z,66.03
2022-12-15T08:00:17.293Z,63.53
2022-12-15T08:02:47.395Z,57.65
2022-12-15T08:05:20.385Z,58.08
2022-12-15T08:07:52.765Z,63.42
2022-12-15T08:10:22.521Z,68.25
2022-12-15T08:12:52.390Z,66.47
2022-12-15T08:15:22.241Z,63.03
2022-12-15T08:17:52.024Z,60.30
2022-12-15T08:20:21.794Z,58.13
2022-12-15T08:22:54.539Z,51.28
2022-12-15T08:25:24.476Z,55.65
2022-12-15T08:27:54.336Z,52.38
2022-12-15T08:30:24.358Z,53.72
2022-12-15T08:32:54.312Z,55.63
2022-12-15T08:35:54.424Z,58.40
2022-12-15T08:38:16.784Z,55.33
2022-12-15T08:40:46.581Z,55.45
2022-12-15T08:43:16.629Z,58.65
2022-12-15T08:45:47.007Z,58.00
2022-12-15T08:48:16.944Z,56.50
2022-12-15T08:50:47.845Z,57.90
2022-12-15T08:53:35.607Z,58.97
2022-12-15T08:56:06.258Z,56.15
2022-12-15T08:58:36.386Z,57.28
2022-12-15T09:01:08.817Z,53.22
2022-12-15T09:03:39.119Z,52.50
2022-12-15T09:06:11.577Z,52.28
2022-12-15T09:08:44.338Z,49.85
2022-12-15T09:11:18.419Z,56.88
2022-12-15T09:13:48.323Z,53.83
2022-12-15T09:16:19.691Z,52.47
2022-12-15T09:18:51.610Z,57.63
2022-12-15T09:21:23.186Z,54.97
2022-12-15T09:24:00.346Z,57.38
2022-12-15T09:26:32.218Z,53.33
2022-12-15T09:29:02.664Z,50.45
2022-12-15T09:31:34.213Z,56.10
2022-12-15T09:34:04.479Z,52.40
2022-12-15T09:36:35.240Z,57.17
2022-12-15T09:39:08.123Z,50.92
2022-12-15T09:41:39.105Z,53.17
2022-12-15T09:44:15.065Z,54.53
2022-12-15T09:47:08.571Z,51.13
2022-12-15T09:49:48.035Z,53.83
2022-12-15T09:52:20.589Z,43.83
2022-12-15T09:54:53.308Z,47.08
2022-12-15T09:57:29.677Z,51.63
2022-12-15T10:00:22.273Z,52.63
2022-12-15T10:03:15.913Z,51.13
2022-12-15T10:06:20.074Z,55.53
2022-12-15T10:08:55.717Z,50.50
2022-12-15T10:11:50.419Z,55.50
2022-12-15T10:14:30.373Z,47.75
2022-12-15T10:17:14.465Z,47.80
2022-12-15T10:19:50.099Z,54.33
2022-12-15T10:22:26.433Z,59.58
2022-12-15T10:25:12.466Z,50.47
2022-12-15T10:28:06.158Z,54.70
2022-12-15T10:30:36.758Z,50.90
2022-12-15T10:33:19.455Z,48.65
2022-12-15T10:35:50.266Z,52.85
2022-12-15T10:38:29.345Z,50.95
2022-12-15T10:41:01.824Z,50.08
2022-12-15T10:43:37.567Z,48.10
2022-12-15T10:46:15.536Z,46.67
2022-12-15T10:48:48.472Z,45.28
2022-12-15T10:51:24.557Z,48.17
2022-12-15T10:53:56.395Z,45.83
2022-12-15T10:56:33.466Z,45.58
2022-12-15T10:59:26.339Z,47.72
2022-12-15T11:01:56.485Z,47.00
2022-12-15T11:04:31.034Z,46.58
2022-12-15T11:09:36.166Z,42.55
2022-12-15T11:12:33.017Z,48.80
2022-12-15T11:15:05.677Z,46.10
2022-12-15T11:17:43.336Z,45.38
2022-12-15T11:20:23.618Z,47.45
2022-12-15T11:22:58.925Z,43.88
2022-12-15T11:25:36.247Z,40.38
2022-12-15T11:28:13.790Z,45.15
2022-12-15T11:30:52.136Z,47.35
2022-12-15T11:33:22.169Z,43.90
2022-12-15T11:36:07.841Z,47.30
2022-12-15T11:38:43.935Z,42.35
2022-12-15T11:41:25.310Z,44.90
2022-12-15T11:44:18.606Z,45.90
2022-12-15T11:46:58.728Z,46.55
2022-12-15T11:49:44.621Z,49.03
2022-12-15T11:52:26.548Z,42.17
2022-12-15T11:54:58.476Z,45.28
2022-12-15T11:57:53.010Z,45.75
2022-12-15T12:00:25.032Z,44.15
2022-12-15T12:03:08.500Z,41.28
2022-12-15T12:06:00.794Z,40.97
2022-12-15T12:11:45.763Z,44.28
2022-12-15T12:14:34.048Z,47.00
2022-12-15T12:17:09.409Z,43.58
2022-12-15T12:19:50.666Z,39.72
2022-12-15T12:22:27.466Z,40.35
2022-12-15T12:25:02.735Z,43.88
2022-12-15T12:27:40.780Z,42.72
2022-12-15T12:30:16.725Z,43.13
2022-12-15T12:32:55.249Z,42.13
2022-12-15T12:35:34.158Z,40.70
2022-12-15T12:38:05.636Z,45.17
2022-12-15T12:40:56.453Z,47.13
2022-12-15T12:43:35.708Z,41.88
2022-12-15T12:46:14.106Z,45.38
2022-12-15T12:48:49.456Z,46.38
2022-12-15T12:51:29.012Z,54.40
2022-12-15T12:54:00.483Z,44.33
2022-12-15T12:56:50.635Z,48.22
2022-12-15T12:59:39.121Z,42.72
2022-12-15T13:02:46.850Z,42.55
2022-12-15T13:05:29.582Z,41.65
2022-12-15T13:08:51.755Z,38.58
2022-12-15T13:12:14.852Z,41.40
2022-12-15T13:14:52.078Z,38.53
2022-12-15T13:17:33.480Z,43.42
2022-12-15T13:20:28.716Z,41.55
2022-12-15T13:26:13.793Z,37.25
2022-12-15T13:28:50.914Z,39.83
2022-12-15T13:31:30.461Z,45.30
2022-12-15T13:34:13.298Z,43.97
2022-12-15T13:37:01.342Z,39.67
2022-12-15T13:39:57.822Z,39.40
2022-12-15T13:42:35.847Z,45.58
2022-12-15T13:45:44.173Z,39.70
2022-12-15T13:48:38.470Z,43.28
2022-12-15T13:51:32.920Z,41.65
2022-12-15T13:54:06.986Z,43.47
2022-12-15T13:56:47.458Z,40.47
2022-12-15T13:59:38.833Z,40.17
2022-12-15T14:02:26.419Z,43.67
2022-12-15T14:05:14.907Z,40.88
2022-12-15T14:10:43.757Z,41.83
2022-12-15T14:13:17.370Z,43.08
2022-12-15T14:15:54.666Z,44.65
2022-12-15T14:18:33.217Z,43.08
2022-12-15T14:21:07.658Z,45.78
2022-12-15T14:26:32.302Z,40.28
2022-12-15T14:29:05.378Z,39.55
2022-12-15T14:31:40.614Z,42.60
2022-12-15T14:34:14.929Z,44.03
2022-12-15T14:36:46.114Z,38.97
2022-12-15T14:39:24.349Z,41.03
2022-12-15T14:41:57.239Z,37.20
2022-12-15T14:44:38.245Z,44.70
2022-12-15T14:47:22.686Z,39.08
2022-12-15T14:49:53.897Z,40.92
2022-12-15T14:52:31.113Z,36.40
2022-12-15T14:55:03.394Z,39.15
2022-12-15T14:57:43.987Z,36.88
2022-12-15T15:00:28.340Z,34.53
2022-12-15T15:03:09.675Z,45.97
2022-12-15T15:03:16.610Z,43.30
2022-12-15T15:03:26.057Z,33.97
2022-12-15T15:05:59.959Z,36.35
2022-12-15T15:08:32.791Z,42.05
2022-12-15T15:11:05.739Z,35.72
2022-12-15T15:13:41.707Z,34.58
2022-12-15T15:16:19.403Z,34.05
2022-12-15T15:18:56.497Z,33.15
2022-12-15T15:21:29.154Z,31.00
2022-12-15T15:24:03.273Z,29.60
2022-12-15T15:26:33.877Z,41.35
2022-12-15T15:29:05.549Z,29.75
2022-12-15T15:31:41.776Z,30.98
2022-12-15T15:34:14.586Z,34.85
2022-12-15T15:36:44.637Z,33.95
2022-12-15T15:39:20.127Z,33.00
2022-12-15T15:41:49.985Z,32.75
2022-12-15T15:44:19.837Z,35.42
2022-12-15T15:46:51.549Z,31.05
2022-12-15T15:49:25.710Z,30.75
2022-12-15T15:51:58.278Z,30.02
2022-12-15T15:54:33.691Z,31.83
2022-12-15T15:57:03.621Z,29.83
2022-12-15T15:59:33.557Z,35.33
2022-12-15T16:02:03.470Z,33.92
2022-12-15T16:04:37.219Z,32.33
2022-12-15T16:07:07.794Z,35.85
2022-12-15T16:09:37.649Z,30.70
2022-12-15T16:12:08.422Z,37.00
2022-12-15T16:14:38.218Z,35.95
2022-12-15T16:17:12.040Z,35.15
2022-12-15T16:19:44.651Z,33.00
2022-12-15T16:22:18.110Z,35.88
2022-12-15T16:24:48.761Z,38.55
2022-12-15T16:27:18.993Z,36.83
2022-12-15T16:29:48.878Z,36.85
2022-12-15T16:32:18.799Z,38.38
2022-12-15T16:34:54.289Z,36.42
2022-12-15T16:37:28.414Z,41.28
2022-12-15T16:39:58.241Z,42.45
2022-12-15T16:42:28.082Z,42.00
2022-12-15T16:44:57.913Z,39.92
2022-12-15T16:47:29.445Z,41.63
2022-12-15T16:50:01.892Z,40.75
2022-12-15T16:52:31.706Z,42.30
2022-12-15T16:55:01.565Z,41.15
2022-12-15T16:57:31.762Z,42.80
2022-12-15T17:00:01.708Z,39.35
2022-12-15T17:02:33.508Z,42.58
2022-12-15T17:05:06.566Z,43.60
2022-12-15T17:07:36.427Z,41.50
2022-12-15T17:10:07.150Z,38.92
2022-12-15T17:12:37.088Z,39.42
2022-12-15T17:15:18.301Z,40.90
2022-12-15T17:17:48.183Z,37.70
2022-12-15T17:20:31.559Z,40.10
2022-12-15T17:23:05.297Z,41.95
2022-12-15T17:26:17.990Z,38.87
2022-12-15T17:28:33.069Z,50.08
2022-12-15T17:31:03.197Z,46.13
2022-12-15T17:33:36.389Z,41.40
2022-12-15T17:36:17.549Z,40.20
2022-12-15T17:38:47.365Z,38.58
2022-12-15T17:41:42.216Z,37.80
2022-12-15T17:44:37.906Z,39.25
2022-12-15T17:47:10.699Z,44.53
2022-12-15T17:49:40.953Z,48.92
2022-12-15T17:52:30.000Z,46.50
2022-12-15T17:55:00.451Z,43.35
2022-12-15T17:57:31.726Z,47.00
2022-12-15T18:00:02.413Z,49.72
2022-12-15T18:02:33.018Z,46.30
2022-12-15T18:05:02.995Z,45.67
2022-12-15T18:07:35.634Z,46.03
2022-12-15T18:10:05.733Z,53.65
2022-12-15T18:12:36.246Z,46.15
2022-12-15T18:15:21.168Z,51.83
2022-12-15T18:17:51.133Z,45.35
2022-12-15T18:20:21.471Z,49.88
2022-12-15T18:22:54.889Z,46.88
2022-12-15T18:25:27.332Z,44.00
2022-12-15T18:27:58.431Z,48.50
2022-12-15T18:30:29.561Z,46.25
2022-12-15T18:33:01.773Z,48.33
2022-12-15T18:35:36.802Z,43.65
2022-12-15T18:38:16.265Z,44.20
2022-12-15T18:40:47.991Z,47.47
2022-12-15T18:43:20.145Z,42.60
2022-12-15T18:45:51.325Z,52.25
2022-12-15T18:48:22.956Z,45.53
2022-12-15T18:50:54.974Z,42.50
2022-12-15T18:53:32.895Z,41.50
2022-12-15T18:56:05.691Z,43.40
2022-12-15T18:58:36.910Z,46.22
2022-12-15T19:01:08.381Z,41.58
2022-12-15T19:03:38.869Z,43.72
2022-12-15T19:06:15.212Z,45.20
2022-12-15T19:08:47.832Z,46.40
2022-12-15T19:11:21.127Z,49.67
2022-12-15T19:13:50.964Z,42.83
2022-12-15T19:16:22.795Z,39.30
2022-12-15T19:19:05.138Z,44.17
2022-12-15T19:21:49.238Z,48.58
2022-12-15T19:24:47.821Z,45.80
2022-12-15T19:27:20.212Z,47.30
2022-12-15T19:29:50.996Z,50.17
2022-12-15T19:32:20.989Z,43.78
2022-12-15T19:34:51.009Z,44.63
2022-12-15T19:37:27.511Z,38.70
2022-12-15T19:40:02.235Z,43.97
2022-12-15T19:45:03.902Z,49.65
2022-12-15T19:47:33.698Z,44.65
2022-12-15T19:50:03.543Z,43.88
2022-12-15T19:52:33.347Z,42.67
2022-12-15T19:55:05.777Z,41.92
2022-12-15T19:57:35.700Z,44.92
2022-12-15T20:00:05.643Z,42.85
2022-12-15T20:02:35.528Z,45.00
2022-12-15T20:05:05.533Z,50.28
2022-12-15T20:07:35.388Z,45.67
2022-12-15T20:10:20.621Z,45.13
2022-12-15T20:12:53.638Z,42.25
2022-12-15T20:15:25.351Z,46.42
2022-12-15T20:17:56.842Z,45.90
2022-12-15T20:20:28.822Z,45.53
2022-12-15T20:23:01.567Z,46.45
2022-12-15T20:25:38.504Z,44.53
2022-12-15T20:28:13.204Z,43.08
2022-12-15T20:30:43.029Z,44.97
2022-12-15T20:33:14.578Z,45.63
2022-12-15T20:35:46.982Z,46.90
2022-12-15T20:38:21.825Z,43.17
2022-12-15T20:40:54.462Z,44.53
2022-12-15T20:43:25.595Z,43.83
2022-12-15T20:46:03.762Z,43.78
2022-12-15T20:48:36.608Z,41.67
2022-12-15T20:51:09.767Z,43.05
2022-12-15T20:53:40.676Z,45.17
2022-12-15T20:56:13.243Z,45.58
2022-12-15T20:58:44.200Z,45.90
2022-12-15T21:01:22.126Z,44.17
2022-12-15T21:03:54.130Z,45.50
2022-12-15T21:06:25.052Z,39.85
2022-12-15T21:08:55.235Z,39.15
2022-12-15T21:11:29.851Z,39.60
2022-12-15T21:14:04.311Z,41.80
2022-12-15T21:20:06.400Z,44.53
2022-12-15T21:21:56.664Z,41.03
2022-12-15T21:24:28.796Z,43.65
2022-12-15T21:27:02.268Z,39.22
2022-12-15T21:29:32.450Z,41.73
2022-12-15T21:32:02.285Z,45.70
2022-12-15T21:34:32.170Z,43.05
2022-12-15T21:37:02.900Z,44.22
2022-12-15T21:39:35.990Z,40.03
2022-12-15T21:42:13.571Z,39.50
2022-12-15T21:44:44.273Z,41.20
2022-12-15T21:47:25.797Z,39.42
2022-12-15T21:49:52.998Z,46.72
2022-12-15T21:52:28.275Z,44.20
2022-12-15T21:54:58.081Z,41.70
2022-12-15T21:57:30.485Z,44.83
2022-12-15T22:00:00.332Z,43.95
2022-12-15T22:02:30.475Z,43.20
2022-12-15T22:05:00.403Z,45.20
2022-12-15T22:07:30.155Z,48.10
2022-12-15T22:09:59.967Z,46.50
2022-12-15T22:12:32.416Z,42.67
2022-12-15T22:15:02.480Z,47.65
2022-12-15T22:17:33.251Z,42.95
2022-12-15T22:20:03.195Z,46.63
2022-12-15T22:22:33.026Z,44.70
2022-12-15T22:25:02.838Z,47.58
2022-12-15T22:27:36.325Z,49.60
2022-12-15T22:30:06.568Z,47.07
2022-12-15T22:32:36.545Z,45.28
2022-12-15T22:35:12.450Z,43.65
2022-12-15T22:37:42.574Z,48.08
2022-12-15T22:40:13.652Z,52.38
2022-12-15T22:42:48.543Z,49.55
2022-12-15T22:45:20.882Z,50.88
2022-12-15T22:47:52.689Z,53.40
2022-12-15T22:50:24.976Z,51.67
2022-12-15T22:52:55.391Z,61.70
2022-12-15T22:55:26.353Z,51.25
2022-12-15T22:58:04.108Z,48.65
2022-12-15T23:00:33.938Z,45.65
2022-12-15T23:03:04.018Z,51.58
2022-12-15T23:05:34.116Z,52.17
2022-12-15T23:08:04.126Z,55.33
2022-12-15T23:10:46.832Z,51.90
2022-12-15T23:13:19.246Z,51.92
2022-12-15T23:16:01.961Z,55.90
2022-12-15T23:18:31.758Z,53.53
2022-12-15T23:21:01.875Z,55.95
2022-12-15T23:23:32.712Z,54.83
2022-12-15T23:26:02.748Z,60.00
2022-12-15T23:28:35.692Z,55.45
2022-12-15T23:31:05.926Z,57.95
2022-12-15T23:33:36.203Z,54.80
2022-12-15T23:36:07.536Z,58.22
2022-12-15T23:38:38.580Z,57.25
2022-12-15T23:41:08.758Z,56.40
2022-12-15T23:43:41.351Z,61.13
2022-12-15T23:46:11.207Z,55.70
2022-12-15T23:48:42.825Z,54.70
2022-12-15T23:51:14.577Z,52.95
2022-12-15T23:53:45.298Z,60.50
2022-12-15T23:56:16.816Z,61.88
2022-12-15T23:58:51.024Z,60.53
